createdAt,value
2019-02-04T00:00:31.944Z,9.10
2019-02-04T00:01:31.932Z,10.90
2019-02-04T00:02:31.921Z,11.30
2019-02-04T00:03:31.913Z,11.10
2019-02-04T00:04:31.911Z,10.60
2019-02-04T00:05:31.892Z,10.40
2019-02-04T00:06:31.882Z,10.70
2019-02-04T00:07:31.871Z,10.00
2019-02-04T00:08:31.860Z,10.30
2019-02-04T00:09:31.850Z,11.20
2019-02-04T00:10:31.840Z,10.50
2019-02-04T00:11:31.831Z,11.30
2019-02-04T00:12:31.819Z,10.20
2019-02-04T00:13:31.807Z,8.00
2019-02-04T00:14:31.799Z,10.50
2019-02-04T00:15:31.789Z,9.10
2019-02-04T00:16:40.641Z,9.40
2019-02-04T00:17:32.766Z,10.20
2019-02-04T00:18:31.758Z,10.90
2019-02-04T00:19:31.745Z,12.30
2019-02-04T00:20:31.733Z,10.50
2019-02-04T00:21:31.723Z,10.90
2019-02-04T00:22:31.712Z,9.30
2019-02-04T00:23:31.702Z,10.30
2019-02-04T00:24:31.691Z,10.20
2019-02-04T00:25:31.682Z,7.90
2019-02-04T00:26:31.670Z,10.20
2019-02-04T00:27:31.661Z,11.30
2019-02-04T00:28:31.651Z,11.30
2019-02-04T00:29:31.643Z,10.00
2019-02-04T00:30:31.631Z,10.70
2019-02-04T00:31:31.618Z,9.90
2019-02-04T00:32:31.608Z,11.10
2019-02-04T00:33:31.596Z,10.80
2019-02-04T00:34:31.587Z,10.50
2019-02-04T00:35:31.576Z,9.40
2019-02-04T00:36:31.567Z,11.80
2019-02-04T00:37:31.572Z,11.40
2019-02-04T00:38:31.549Z,10.30
2019-02-04T00:39:31.536Z,14.20
2019-02-04T00:40:31.534Z,10.30
2019-02-04T00:41:31.514Z,12.70
2019-02-04T00:42:31.506Z,9.20
2019-02-04T00:43:31.498Z,13.00
2019-02-04T00:44:31.482Z,11.50
2019-02-04T00:45:31.478Z,12.00
2019-02-04T00:46:31.460Z,11.40
2019-02-04T00:47:31.451Z,11.50
2019-02-04T00:48:31.442Z,12.90
2019-02-04T00:49:31.429Z,12.50
2019-02-04T00:50:31.419Z,13.80
2019-02-04T00:51:31.412Z,12.40
2019-02-04T00:52:31.398Z,11.80
2019-02-04T00:53:31.388Z,11.70
2019-02-04T00:54:31.376Z,11.60
2019-02-04T00:55:31.368Z,14.90
2019-02-04T00:56:31.357Z,13.40
2019-02-04T00:57:31.346Z,11.50
2019-02-04T00:58:31.336Z,12.50
2019-02-04T00:59:31.325Z,11.70
2019-02-04T01:00:31.315Z,12.10
2019-02-04T01:01:31.306Z,13.50
2019-02-04T01:02:31.294Z,15.00
2019-02-04T01:03:31.283Z,12.50
2019-02-04T01:04:31.273Z,13.40
2019-02-04T01:05:31.266Z,17.30
2019-02-04T01:06:31.252Z,14.90
2019-02-04T01:07:31.241Z,14.80
2019-02-04T01:08:31.231Z,14.80
2019-02-04T01:09:31.221Z,14.60
2019-02-04T01:10:31.211Z,13.80
2019-02-04T01:11:31.201Z,13.30
2019-02-04T01:12:31.189Z,15.80
2019-02-04T01:13:31.179Z,15.60
2019-02-04T01:14:31.168Z,17.30
2019-02-04T01:15:31.157Z,16.60
2019-02-04T01:16:31.147Z,15.10
2019-02-04T01:17:31.138Z,15.00
2019-02-04T01:18:31.125Z,16.20
2019-02-04T01:19:31.115Z,13.90
2019-02-04T01:20:31.105Z,16.10
2019-02-04T01:21:31.093Z,14.20
2019-02-04T01:22:31.086Z,16.10
2019-02-04T01:23:31.074Z,15.90
2019-02-04T01:24:31.067Z,15.70
2019-02-04T01:25:31.056Z,15.90
2019-02-04T01:26:31.041Z,15.80
2019-02-04T01:27:31.033Z,14.20
2019-02-04T01:28:31.022Z,15.00
2019-02-04T01:29:31.014Z,13.90
2019-02-04T01:30:31.000Z,14.70
2019-02-04T01:31:30.992Z,14.90
2019-02-04T01:32:30.980Z,15.80
2019-02-04T01:33:30.969Z,15.90
2019-02-04T01:34:30.958Z,16.40
2019-02-04T01:35:30.949Z,16.60
2019-02-04T01:36:30.942Z,17.50
2019-02-04T01:37:30.927Z,20.10
2019-02-04T01:38:30.917Z,17.10
2019-02-04T01:39:30.906Z,18.00
2019-02-04T01:40:30.896Z,16.40
2019-02-04T01:41:33.168Z,18.30
2019-02-04T01:42:30.875Z,15.20
2019-02-04T01:43:30.867Z,17.20
2019-02-04T01:44:30.854Z,18.40
2019-02-04T01:45:30.844Z,17.10
2019-02-04T01:46:30.833Z,15.60
2019-02-04T01:47:30.825Z,18.40
2019-02-04T01:48:30.815Z,19.10
2019-02-04T01:49:30.802Z,18.00
2019-02-04T01:50:30.792Z,18.50
2019-02-04T01:51:30.782Z,20.60
2019-02-04T01:52:30.771Z,20.30
2019-02-04T01:53:30.760Z,20.50
2019-02-04T01:54:30.757Z,19.50
2019-02-04T01:55:30.740Z,19.70
2019-02-04T01:56:30.746Z,23.30
2019-02-04T01:57:30.719Z,21.20
2019-02-04T01:58:30.707Z,22.30
2019-02-04T01:59:30.702Z,19.70
2019-02-04T02:00:30.693Z,24.80
2019-02-04T02:01:30.676Z,23.10
2019-02-04T02:02:30.666Z,23.30
2019-02-04T02:03:30.655Z,23.00
2019-02-04T02:04:30.646Z,27.10
2019-02-04T02:05:30.634Z,26.20
2019-02-04T02:06:30.635Z,20.50
2019-02-04T02:07:30.613Z,23.40
2019-02-04T02:08:30.604Z,25.40
2019-02-04T02:09:30.593Z,27.50
2019-02-04T02:10:30.582Z,22.70
2019-02-04T02:11:30.575Z,24.50
2019-02-04T02:12:30.560Z,24.20
2019-02-04T02:13:30.552Z,29.70
2019-02-04T02:14:30.539Z,26.70
2019-02-04T02:15:30.530Z,28.60
2019-02-04T02:16:30.519Z,28.10
2019-02-04T02:17:30.509Z,30.00
2019-02-04T02:18:30.500Z,32.60
2019-02-04T02:19:30.489Z,26.10
2019-02-04T02:20:30.479Z,29.90
2019-02-04T02:21:30.468Z,27.80
2019-02-04T02:22:30.456Z,23.80
2019-02-04T02:23:30.447Z,24.80
2019-02-04T02:24:30.436Z,26.00
2019-02-04T02:25:30.425Z,28.90
2019-02-04T02:26:30.417Z,29.00
2019-02-04T02:27:30.406Z,27.60
2019-02-04T02:28:30.394Z,25.30
2019-02-04T02:29:30.383Z,27.40
2019-02-04T02:30:30.376Z,27.00
2019-02-04T02:31:30.362Z,27.80
2019-02-04T02:32:30.353Z,29.80
2019-02-04T02:33:30.346Z,29.00
2019-02-04T02:34:30.331Z,29.60
2019-02-04T02:35:30.318Z,27.10
2019-02-04T02:36:30.308Z,29.40
2019-02-04T02:37:30.300Z,28.00
2019-02-04T02:38:30.290Z,37.60
2019-02-04T02:39:30.278Z,36.00
2019-02-04T02:40:30.281Z,31.30
2019-02-04T02:41:30.262Z,33.80
2019-02-04T02:42:30.247Z,38.30
2019-02-04T02:43:30.240Z,40.20
2019-02-04T02:44:30.227Z,38.40
2019-02-04T02:45:30.215Z,38.70
2019-02-04T02:46:30.206Z,39.70
2019-02-04T02:47:38.064Z,36.10
2019-02-04T02:48:31.184Z,39.70
2019-02-04T02:49:30.178Z,36.60
2019-02-04T02:50:30.171Z,34.70
2019-02-04T02:51:30.155Z,33.90
2019-02-04T02:52:30.143Z,39.70
2019-02-04T02:53:30.131Z,31.70
2019-02-04T02:54:30.121Z,36.60
2019-02-04T02:55:30.111Z,36.60
2019-02-04T02:56:30.101Z,40.90
2019-02-04T02:57:30.096Z,43.30
2019-02-04T02:58:30.080Z,47.70
2019-02-04T02:59:30.070Z,43.90
2019-02-04T03:00:30.070Z,49.20
2019-02-04T03:01:30.047Z,48.10
2019-02-04T03:02:30.042Z,44.60
2019-02-04T03:03:30.028Z,48.10
2019-02-04T03:04:30.018Z,43.40
2019-02-04T03:05:30.008Z,46.90
2019-02-04T03:06:29.997Z,51.20
2019-02-04T03:07:29.986Z,48.40
2019-02-04T03:08:29.979Z,52.50
2019-02-04T03:09:29.967Z,51.10
2019-02-04T03:10:29.954Z,49.40
2019-02-04T03:11:29.944Z,56.70
2019-02-04T03:12:29.936Z,59.00
2019-02-04T03:13:29.923Z,59.60
2019-02-04T03:14:29.917Z,55.20
2019-02-04T03:15:29.907Z,49.50
2019-02-04T03:16:29.891Z,60.20
2019-02-04T03:17:29.885Z,51.20
2019-02-04T03:18:29.879Z,54.60
2019-02-04T03:19:29.861Z,56.40
2019-02-04T03:20:29.854Z,56.20
2019-02-04T03:21:29.841Z,47.30
2019-02-04T03:22:29.829Z,46.70
2019-02-04T03:23:29.817Z,49.30
2019-02-04T03:24:29.808Z,49.40
2019-02-04T03:25:29.797Z,49.90
2019-02-04T03:26:29.792Z,52.00
2019-02-04T03:27:29.776Z,48.80
2019-02-04T03:28:29.834Z,45.30
2019-02-04T03:29:29.767Z,48.60
2019-02-04T03:30:29.750Z,42.90
2019-02-04T03:31:29.741Z,39.00
2019-02-04T03:32:29.766Z,41.90
2019-02-04T03:33:29.715Z,42.30
2019-02-04T03:34:29.703Z,38.90
2019-02-04T03:35:29.693Z,43.30
2019-02-04T03:36:29.681Z,40.20
2019-02-04T03:37:29.672Z,34.30
2019-02-04T03:38:29.660Z,39.20
2019-02-04T03:39:29.652Z,35.10
2019-02-04T03:40:29.657Z,41.00
2019-02-04T03:41:29.631Z,38.00
2019-02-04T03:42:29.622Z,39.60
2019-02-04T03:43:29.610Z,36.20
2019-02-04T03:44:29.599Z,33.90
2019-02-04T03:45:29.587Z,36.60
2019-02-04T03:46:29.577Z,37.10
2019-02-04T03:47:29.566Z,37.70
2019-02-04T03:48:29.558Z,33.40
2019-02-04T03:49:29.557Z,38.20
2019-02-04T03:50:29.535Z,34.30
2019-02-04T03:51:29.526Z,32.20
2019-02-04T03:52:29.515Z,37.30
2019-02-04T03:53:29.506Z,36.50
2019-02-04T03:54:29.494Z,33.80
2019-02-04T03:55:29.488Z,33.30
2019-02-04T03:56:29.473Z,33.20
2019-02-04T03:57:29.464Z,33.20
2019-02-04T03:58:29.451Z,31.20
2019-02-04T03:59:29.442Z,32.20
2019-02-04T04:00:29.432Z,27.40
2019-02-04T04:01:29.420Z,26.10
2019-02-04T04:02:29.412Z,27.80
2019-02-04T04:03:29.399Z,28.60
2019-02-04T04:04:29.391Z,29.90
2019-02-04T04:05:29.379Z,26.40
2019-02-04T04:06:29.368Z,30.20
2019-02-04T04:07:29.358Z,28.00
2019-02-04T04:08:29.349Z,27.30
2019-02-04T04:09:29.335Z,26.30
2019-02-04T04:10:29.328Z,26.60
2019-02-04T04:11:29.315Z,26.50
2019-02-04T04:12:29.305Z,28.00
2019-02-04T04:13:29.295Z,26.10
2019-02-04T04:14:29.283Z,28.80
2019-02-04T04:15:29.274Z,25.10
2019-02-04T04:16:29.265Z,24.60
2019-02-04T04:17:29.253Z,28.50
2019-02-04T04:18:29.242Z,26.70
2019-02-04T04:19:29.232Z,25.00
2019-02-04T04:20:29.223Z,27.70
2019-02-04T04:21:29.212Z,25.60
2019-02-04T04:22:29.203Z,27.20
2019-02-04T04:23:29.191Z,26.50
2019-02-04T04:24:29.179Z,25.20
2019-02-04T04:25:29.237Z,28.10
2019-02-04T04:26:29.170Z,27.00
2019-02-04T04:27:29.164Z,26.10
2019-02-04T04:28:29.139Z,26.10
2019-02-04T04:29:29.126Z,26.10
2019-02-04T04:30:29.135Z,26.90
2019-02-04T04:31:29.109Z,25.20
2019-02-04T04:32:30.073Z,28.70
2019-02-04T04:33:29.090Z,25.50
2019-02-04T04:34:29.078Z,31.00
2019-02-04T04:35:29.068Z,26.20
2019-02-04T04:36:29.055Z,25.50
2019-02-04T04:37:29.043Z,25.60
2019-02-04T04:38:29.033Z,27.50
2019-02-04T04:39:29.023Z,26.80
2019-02-04T04:40:29.010Z,26.20
2019-02-04T04:41:29.001Z,29.10
2019-02-04T04:42:28.993Z,27.80
2019-02-04T04:43:28.982Z,25.90
2019-02-04T04:44:28.970Z,23.00
2019-02-04T04:45:28.962Z,28.00
2019-02-04T04:46:28.947Z,30.20
2019-02-04T04:47:28.941Z,30.20
2019-02-04T04:48:28.931Z,32.60
2019-02-04T04:49:28.918Z,32.50
2019-02-04T04:50:28.908Z,32.10
2019-02-04T04:51:28.896Z,31.00
2019-02-04T04:52:28.889Z,36.30
2019-02-04T04:53:28.878Z,32.50
2019-02-04T04:54:28.865Z,39.20
2019-02-04T04:55:28.858Z,46.00
2019-02-04T04:56:28.846Z,37.20
2019-02-04T04:57:28.833Z,28.70
2019-02-04T04:58:28.823Z,34.40
2019-02-04T04:59:28.814Z,30.30
2019-02-04T05:00:28.803Z,36.80
2019-02-04T05:01:28.888Z,48.20
2019-02-04T05:02:28.782Z,31.20
2019-02-04T05:03:28.788Z,26.80
2019-02-04T05:04:28.759Z,30.20
2019-02-04T05:05:28.751Z,28.50
2019-02-04T05:06:28.738Z,25.00
2019-02-04T05:07:28.729Z,28.00
2019-02-04T05:08:28.720Z,28.10
2019-02-04T05:09:28.770Z,28.00
2019-02-04T05:10:28.704Z,29.00
2019-02-04T05:11:28.691Z,28.00
2019-02-04T05:12:28.675Z,29.40
2019-02-04T05:13:28.666Z,34.80
2019-02-04T05:14:28.657Z,36.70
2019-02-04T05:15:28.647Z,39.10
2019-02-04T05:16:28.634Z,37.80
2019-02-04T05:17:28.625Z,33.20
2019-02-04T05:18:37.893Z,31.50
2019-02-04T05:19:29.603Z,30.60
2019-02-04T05:20:28.592Z,26.70
2019-02-04T05:21:28.583Z,24.50
2019-02-04T05:22:28.573Z,30.50
2019-02-04T05:23:28.567Z,30.00
2019-02-04T05:24:28.552Z,30.90
2019-02-04T05:25:28.539Z,32.50
2019-02-04T05:26:28.531Z,26.80
2019-02-04T05:27:28.517Z,28.40
2019-02-04T05:28:28.509Z,27.70
2019-02-04T05:29:28.517Z,35.60
2019-02-04T05:30:28.490Z,34.10
2019-02-04T05:31:28.477Z,35.30
2019-02-04T05:32:28.466Z,34.00
2019-02-04T05:33:28.455Z,29.40
2019-02-04T05:34:28.449Z,30.20
2019-02-04T05:35:28.437Z,29.20
2019-02-04T05:36:28.431Z,28.00
2019-02-04T05:37:28.414Z,33.20
2019-02-04T05:38:28.406Z,33.80
2019-02-04T05:39:28.393Z,30.30
2019-02-04T05:40:28.384Z,29.30
2019-02-04T05:41:28.378Z,30.20
2019-02-04T05:42:28.362Z,34.70
2019-02-04T05:43:28.352Z,31.50
2019-02-04T05:44:28.341Z,37.50
2019-02-04T05:45:28.331Z,42.50
2019-02-04T05:46:28.321Z,40.70
2019-02-04T05:47:28.309Z,44.10
2019-02-04T05:48:28.298Z,41.00
2019-02-04T05:49:28.291Z,47.50
2019-02-04T05:50:28.283Z,44.30
2019-02-04T05:51:28.270Z,34.70
2019-02-04T05:52:28.261Z,38.30
2019-02-04T05:53:28.263Z,44.30
2019-02-04T05:54:28.237Z,51.70
2019-02-04T05:55:30.563Z,47.70
2019-02-04T05:56:28.216Z,48.20
2019-02-04T05:57:28.206Z,45.00
2019-02-04T05:58:28.198Z,44.20
2019-02-04T05:59:28.187Z,43.60
2019-02-04T06:00:28.177Z,49.70
2019-02-04T06:01:28.164Z,40.20
2019-02-04T06:02:28.152Z,43.90
2019-02-04T06:03:28.142Z,39.40
2019-02-04T06:04:28.137Z,37.60
2019-02-04T06:05:28.128Z,40.90
2019-02-04T06:06:28.111Z,41.70
2019-02-04T06:07:28.100Z,43.50
2019-02-04T06:08:28.091Z,43.60
2019-02-04T06:09:28.079Z,46.00
2019-02-04T06:10:28.069Z,47.10
2019-02-04T06:11:28.057Z,47.20
2019-02-04T06:12:28.049Z,54.60
2019-02-04T06:13:28.039Z,46.80
2019-02-04T06:14:28.028Z,44.40
2019-02-04T06:15:28.020Z,43.80
2019-02-04T06:16:28.005Z,43.90
2019-02-04T06:17:27.997Z,49.30
2019-02-04T06:18:27.986Z,51.20
2019-02-04T06:19:27.976Z,54.80
2019-02-04T06:20:27.965Z,51.90
2019-02-04T06:21:27.955Z,51.50
2019-02-04T06:22:27.942Z,48.20
2019-02-04T06:23:27.932Z,69.30
2019-02-04T06:24:27.921Z,64.40
2019-02-04T06:25:27.936Z,62.00
2019-02-04T06:26:27.903Z,66.00
2019-02-04T06:27:27.894Z,59.40
2019-02-04T06:28:27.881Z,54.10
2019-02-04T06:29:27.874Z,62.20
2019-02-04T06:30:27.860Z,62.80
2019-02-04T06:31:27.853Z,66.20
2019-02-04T06:32:27.842Z,59.40
2019-02-04T06:33:27.829Z,63.50
2019-02-04T06:34:27.817Z,63.00
2019-02-04T06:35:27.808Z,55.40
2019-02-04T06:36:27.798Z,56.60
2019-02-04T06:37:27.785Z,57.90
2019-02-04T06:38:27.777Z,55.30
2019-02-04T06:39:27.766Z,60.40
2019-02-04T06:40:27.757Z,54.00
2019-02-04T06:41:27.747Z,51.60
2019-02-04T06:42:27.733Z,61.80
2019-02-04T06:43:27.724Z,50.20
2019-02-04T06:44:27.716Z,55.70
2019-02-04T06:45:27.707Z,56.90
2019-02-04T06:46:27.694Z,58.40
2019-02-04T06:47:27.682Z,62.40
2019-02-04T06:48:27.672Z,61.20
2019-02-04T06:49:27.663Z,52.70
2019-02-04T06:50:27.649Z,61.40
2019-02-04T06:51:27.640Z,56.60
2019-02-04T06:52:27.629Z,58.40
2019-02-04T06:53:27.619Z,56.40
2019-02-04T06:54:27.609Z,54.50
2019-02-04T06:55:27.597Z,50.70
2019-02-04T06:56:27.587Z,61.50
2019-02-04T06:57:27.577Z,57.60
2019-02-04T06:58:27.567Z,61.10
2019-02-04T06:59:27.557Z,55.10
2019-02-04T07:00:27.548Z,53.00
2019-02-04T07:01:27.548Z,51.20
2019-02-04T07:02:27.525Z,53.40
2019-02-04T07:03:27.517Z,53.10
2019-02-04T07:04:27.503Z,57.30
2019-02-04T07:05:27.492Z,58.90
2019-02-04T07:06:27.485Z,54.70
2019-02-04T07:07:27.476Z,58.60
2019-02-04T07:08:27.462Z,59.60
2019-02-04T07:09:27.449Z,55.90
2019-02-04T07:10:27.441Z,53.20
2019-02-04T07:11:27.431Z,53.10
2019-02-04T07:12:27.422Z,49.10
2019-02-04T07:13:27.408Z,48.70
2019-02-04T07:14:27.397Z,48.90
2019-02-04T07:15:27.389Z,47.60
2019-02-04T07:16:27.380Z,45.00
2019-02-04T07:17:27.369Z,44.50
2019-02-04T07:18:27.357Z,42.40
2019-02-04T07:19:27.348Z,44.80
2019-02-04T07:20:27.340Z,42.20
2019-02-04T07:21:27.334Z,47.40
2019-02-04T07:22:27.321Z,37.40
2019-02-04T07:23:27.303Z,41.70
2019-02-04T07:24:27.296Z,43.90
2019-02-04T07:25:27.282Z,42.50
2019-02-04T07:26:27.280Z,38.60
2019-02-04T07:27:27.271Z,41.40
2019-02-04T07:28:27.250Z,40.40
2019-02-04T07:29:27.244Z,40.80
2019-02-04T07:30:27.234Z,38.60
2019-02-04T07:31:27.221Z,40.80
2019-02-04T07:32:27.210Z,33.50
2019-02-04T07:33:27.200Z,39.20
2019-02-04T07:34:27.190Z,39.90
2019-02-04T07:35:27.238Z,37.70
2019-02-04T07:36:27.167Z,35.60
2019-02-04T07:37:27.158Z,33.40
2019-02-04T07:38:27.147Z,40.90
2019-02-04T07:39:27.134Z,34.70
2019-02-04T07:40:27.126Z,43.80
2019-02-04T07:41:27.120Z,36.60
2019-02-04T07:42:27.109Z,32.50
2019-02-04T07:43:27.096Z,34.60
2019-02-04T07:44:27.217Z,39.40
2019-02-04T07:45:27.074Z,36.00
2019-02-04T07:46:27.067Z,40.90
2019-02-04T07:47:27.051Z,42.90
2019-02-04T07:48:27.043Z,38.50
2019-02-04T07:49:35.024Z,36.10
2019-02-04T07:50:28.019Z,39.60
2019-02-04T07:51:27.011Z,38.30
2019-02-04T07:52:27.002Z,45.00
2019-02-04T07:53:26.991Z,37.20
2019-02-04T07:54:26.981Z,35.90
2019-02-04T07:55:26.971Z,39.20
2019-02-04T07:56:26.959Z,38.10
2019-02-04T07:57:26.949Z,35.00
2019-02-04T07:58:26.938Z,32.60
2019-02-04T07:59:26.929Z,31.00
2019-02-04T08:00:26.920Z,35.40
2019-02-04T08:01:27.019Z,33.80
2019-02-04T08:02:26.895Z,34.30
2019-02-04T08:03:26.887Z,29.20
2019-02-04T08:04:26.875Z,30.20
2019-02-04T08:05:26.865Z,41.00
2019-02-04T08:06:26.854Z,32.60
2019-02-04T08:07:26.851Z,33.60
2019-02-04T08:08:26.832Z,32.20
2019-02-04T08:09:26.822Z,32.30
2019-02-04T08:10:26.811Z,28.80
2019-02-04T08:11:26.801Z,32.90
2019-02-04T08:12:26.789Z,26.90
2019-02-04T08:13:26.779Z,21.80
2019-02-04T08:14:26.770Z,23.50
2019-02-04T08:15:26.758Z,21.30
2019-02-04T08:16:26.749Z,21.60
2019-02-04T08:17:26.739Z,20.30
2019-02-04T08:18:26.728Z,19.60
2019-02-04T08:19:26.720Z,18.70
2019-02-04T08:20:26.706Z,17.70
2019-02-04T08:21:26.703Z,17.10
2019-02-04T08:22:26.685Z,18.10
2019-02-04T08:23:26.679Z,18.80
2019-02-04T08:24:26.669Z,17.40
2019-02-04T08:25:26.654Z,16.10
2019-02-04T08:26:26.641Z,15.00
2019-02-04T08:27:26.633Z,16.50
2019-02-04T08:28:26.622Z,17.90
2019-02-04T08:29:26.616Z,17.30
2019-02-04T08:30:26.601Z,17.70
2019-02-04T08:31:26.590Z,19.10
2019-02-04T08:32:26.581Z,17.70
2019-02-04T08:33:26.570Z,16.10
2019-02-04T08:34:26.560Z,17.40
2019-02-04T08:35:26.545Z,17.40
2019-02-04T08:36:26.534Z,16.80
2019-02-04T08:37:26.526Z,17.40
2019-02-04T08:38:26.514Z,18.90
2019-02-04T08:39:26.502Z,19.00
2019-02-04T08:40:26.497Z,18.30
2019-02-04T08:41:26.488Z,18.10
2019-02-04T08:42:26.471Z,18.80
2019-02-04T08:43:26.465Z,18.70
2019-02-04T08:44:26.451Z,19.80
2019-02-04T08:45:26.441Z,19.60
2019-02-04T08:46:26.440Z,19.30
2019-02-04T08:47:26.422Z,19.70
2019-02-04T08:48:26.409Z,19.40
2019-02-04T08:49:26.397Z,17.00
2019-02-04T08:50:26.387Z,17.30
2019-02-04T08:51:26.375Z,17.00
2019-02-04T08:52:26.368Z,16.40
2019-02-04T08:53:26.358Z,16.00
2019-02-04T08:54:26.346Z,16.30
2019-02-04T08:55:26.333Z,17.40
2019-02-04T08:56:26.325Z,19.70
2019-02-04T08:57:26.312Z,16.00
2019-02-04T08:58:26.299Z,15.10
2019-02-04T08:59:26.290Z,15.60
2019-02-04T09:00:26.279Z,16.90
2019-02-04T09:01:26.270Z,18.70
2019-02-04T09:02:26.259Z,16.60
2019-02-04T09:03:26.247Z,16.90
2019-02-04T09:04:26.235Z,15.20
2019-02-04T09:05:26.225Z,13.70
2019-02-04T09:06:26.215Z,15.70
2019-02-04T09:07:26.206Z,16.50
2019-02-04T09:08:26.196Z,17.20
2019-02-04T09:09:26.185Z,16.30
2019-02-04T09:10:26.175Z,19.00
2019-02-04T09:11:26.161Z,15.70
2019-02-04T09:12:26.152Z,14.70
2019-02-04T09:13:26.142Z,15.10
2019-02-04T09:14:26.136Z,17.10
2019-02-04T09:15:26.122Z,16.10
2019-02-04T09:16:26.109Z,15.90
2019-02-04T09:17:26.097Z,16.20
2019-02-04T09:18:26.087Z,14.70
2019-02-04T09:19:26.076Z,14.20
2019-02-04T09:20:26.065Z,14.70
2019-02-04T09:21:26.054Z,14.70
2019-02-04T09:22:26.044Z,14.40
2019-02-04T09:23:26.036Z,17.30
2019-02-04T09:24:26.022Z,15.10
2019-02-04T09:25:26.012Z,13.40
2019-02-04T09:26:26.000Z,13.60
2019-02-04T09:27:25.990Z,14.20
2019-02-04T09:28:25.980Z,14.20
2019-02-04T09:29:25.969Z,15.10
2019-02-04T09:30:25.957Z,13.30
2019-02-04T09:31:25.948Z,13.10
2019-02-04T09:32:25.935Z,12.30
2019-02-04T09:33:25.927Z,14.30
2019-02-04T09:34:25.916Z,15.50
2019-02-04T09:35:25.905Z,13.20
2019-02-04T09:36:25.891Z,11.70
2019-02-04T09:37:25.883Z,16.10
2019-02-04T09:38:25.871Z,12.70
2019-02-04T09:39:25.861Z,11.10
2019-02-04T09:40:25.849Z,12.70
2019-02-04T09:41:25.838Z,13.00
2019-02-04T09:42:25.829Z,13.50
2019-02-04T09:43:25.822Z,13.70
2019-02-04T09:44:25.807Z,13.10
2019-02-04T09:45:27.707Z,13.40
2019-02-04T09:46:25.787Z,14.60
2019-02-04T09:47:25.775Z,12.50
2019-02-04T09:48:25.764Z,15.40
2019-02-04T09:49:25.753Z,13.60
2019-02-04T09:50:25.745Z,14.90
2019-02-04T09:51:25.736Z,12.20
2019-02-04T09:52:25.722Z,14.40
2019-02-04T09:53:25.713Z,14.40
2019-02-04T09:54:25.702Z,16.70
2019-02-04T09:55:25.693Z,15.60
2019-02-04T09:56:25.679Z,13.60
2019-02-04T09:57:25.669Z,13.80
2019-02-04T09:58:25.671Z,11.60
2019-02-04T09:59:25.647Z,14.10
2019-02-04T10:00:25.636Z,15.10
2019-02-04T10:01:25.625Z,14.30
2019-02-04T10:02:25.630Z,12.70
2019-02-04T10:03:25.604Z,12.60
2019-02-04T10:04:25.703Z,13.40
2019-02-04T10:05:25.580Z,13.10
2019-02-04T10:06:25.574Z,11.90
2019-02-04T10:07:25.563Z,13.00
2019-02-04T10:08:25.550Z,14.90
2019-02-04T10:09:25.541Z,13.00
2019-02-04T10:10:25.531Z,16.50
2019-02-04T10:11:25.520Z,14.20
2019-02-04T10:12:25.508Z,14.40
2019-02-04T10:13:25.499Z,12.40
2019-02-04T10:14:25.501Z,12.20
2019-02-04T10:15:25.507Z,15.40
2019-02-04T10:16:25.468Z,16.30
2019-02-04T10:17:25.459Z,12.50
2019-02-04T10:18:25.443Z,13.20
2019-02-04T10:19:25.476Z,13.20
2019-02-04T10:20:33.526Z,13.60
2019-02-04T10:21:26.448Z,12.80
2019-02-04T10:22:25.406Z,13.80
2019-02-04T10:23:25.429Z,12.30
2019-02-04T10:24:25.397Z,10.00
2019-02-04T10:25:25.368Z,10.10
2019-02-04T10:26:25.377Z,9.90
2019-02-04T10:27:25.385Z,10.70
2019-02-04T10:28:25.346Z,10.00
2019-02-04T10:29:25.345Z,12.00
2019-02-04T10:30:25.320Z,11.10
2019-02-04T10:31:25.337Z,9.70
2019-02-04T10:32:25.327Z,9.40
2019-02-04T10:33:25.307Z,11.40
2019-02-04T10:34:25.272Z,11.30
2019-02-04T10:35:25.274Z,10.00
2019-02-04T10:36:25.269Z,9.80
2019-02-04T10:37:25.258Z,9.60
2019-02-04T10:38:25.235Z,14.10
2019-02-04T10:39:25.255Z,9.60
2019-02-04T10:40:25.240Z,10.80
2019-02-04T10:41:25.251Z,9.90
2019-02-04T10:42:25.186Z,9.30
2019-02-04T10:43:25.212Z,9.30
2019-02-04T10:44:25.184Z,9.20
2019-02-04T10:45:25.207Z,10.10
2019-02-04T10:46:25.160Z,8.30
2019-02-04T10:47:25.165Z,9.20
2019-02-04T10:48:25.121Z,10.90
2019-02-04T10:49:25.109Z,11.70
2019-02-04T10:50:25.116Z,11.40
2019-02-04T10:51:25.087Z,10.40
2019-02-04T10:52:25.106Z,9.10
2019-02-04T10:53:25.070Z,8.80
2019-02-04T10:54:25.083Z,9.30
2019-02-04T10:55:25.138Z,9.60
2019-02-04T10:56:25.069Z,8.90
2019-02-04T10:57:25.038Z,10.50
2019-02-04T10:58:25.011Z,10.10
2019-02-04T10:59:25.013Z,8.40
2019-02-04T11:00:25.003Z,8.00
2019-02-04T11:01:25.026Z,10.40
2019-02-04T11:02:24.977Z,9.00
2019-02-04T11:03:24.971Z,8.30
2019-02-04T11:04:24.956Z,9.50
2019-02-04T11:05:24.935Z,9.10
2019-02-04T11:06:24.928Z,10.10
2019-02-04T11:07:24.914Z,6.90
2019-02-04T11:08:24.976Z,9.20
2019-02-04T11:09:24.920Z,9.90
2019-02-04T11:10:24.892Z,11.80
2019-02-04T11:11:24.906Z,8.60
2019-02-04T11:12:24.861Z,10.20
2019-02-04T11:13:24.854Z,8.90
2019-02-04T11:14:24.838Z,9.50
2019-02-04T11:15:25.697Z,9.50
2019-02-04T11:16:24.820Z,9.50
2019-02-04T11:17:24.846Z,8.00
2019-02-04T11:18:24.793Z,9.30
2019-02-04T11:19:24.805Z,9.00
2019-02-04T11:20:24.784Z,9.10
2019-02-04T11:21:24.763Z,7.90
2019-02-04T11:22:24.751Z,9.40
2019-02-04T11:23:24.747Z,9.80
2019-02-04T11:24:24.730Z,8.80
2019-02-04T11:25:24.720Z,8.30
2019-02-04T11:26:24.745Z,10.00
2019-02-04T11:27:24.700Z,9.20
2019-02-04T11:28:24.724Z,8.60
2019-02-04T11:29:24.724Z,11.90
2019-02-04T11:30:24.662Z,9.40
2019-02-04T11:31:24.689Z,7.70
2019-02-04T11:32:24.656Z,7.40
2019-02-04T11:33:24.661Z,8.40
2019-02-04T11:34:24.671Z,7.30
2019-02-04T11:35:24.660Z,7.10
2019-02-04T11:36:24.637Z,6.00
2019-02-04T11:37:24.612Z,6.60
2019-02-04T11:38:24.577Z,7.70
2019-02-04T11:39:24.568Z,7.90
2019-02-04T11:40:24.572Z,6.50
2019-02-04T11:41:24.593Z,5.60
2019-02-04T11:42:24.560Z,7.50
2019-02-04T11:43:24.573Z,6.80
2019-02-04T11:44:24.516Z,7.20
2019-02-04T11:45:24.547Z,6.30
2019-02-04T11:46:24.496Z,7.30
2019-02-04T11:47:24.504Z,6.60
2019-02-04T11:48:24.519Z,6.60
2019-02-04T11:49:24.458Z,5.20
2019-02-04T11:50:24.450Z,5.30
2019-02-04T11:51:24.441Z,5.20
2019-02-04T11:52:24.428Z,6.80
2019-02-04T11:53:32.269Z,7.20
2019-02-04T11:54:25.405Z,6.10
2019-02-04T11:55:24.395Z,5.90
2019-02-04T11:56:24.384Z,5.70
2019-02-04T11:57:24.374Z,6.80
2019-02-04T11:58:24.362Z,8.40
2019-02-04T11:59:24.350Z,6.40
2019-02-04T12:00:24.354Z,5.20
2019-02-04T12:01:24.331Z,6.50
2019-02-04T12:02:34.357Z,6.70
2019-02-04T12:03:25.307Z,6.30
2019-02-04T12:04:24.298Z,5.40
2019-02-04T12:05:24.284Z,5.90
2019-02-04T12:06:24.276Z,4.60
2019-02-04T12:07:24.265Z,5.10
2019-02-04T12:08:24.260Z,6.20
2019-02-04T12:09:24.247Z,6.90
2019-02-04T12:10:24.235Z,6.20
2019-02-04T12:11:24.223Z,6.30
2019-02-04T12:12:24.212Z,3.60
2019-02-04T12:13:24.200Z,6.20
2019-02-04T12:14:24.190Z,5.90
2019-02-04T12:15:24.181Z,5.30
2019-02-04T12:16:24.169Z,7.70
2019-02-04T12:17:24.162Z,5.20
2019-02-04T12:18:24.146Z,4.40
2019-02-04T12:19:24.138Z,6.10
2019-02-04T12:20:24.127Z,6.70
2019-02-04T12:21:24.111Z,5.70
2019-02-04T12:22:24.103Z,6.90
2019-02-04T12:23:24.092Z,4.80
2019-02-04T12:24:24.080Z,4.80
2019-02-04T12:25:24.069Z,5.60
2019-02-04T12:26:24.065Z,4.10
2019-02-04T12:27:31.867Z,5.20
2019-02-04T12:28:25.037Z,5.70
2019-02-04T12:29:24.027Z,5.40
2019-02-04T12:30:24.018Z,6.30
2019-02-04T12:31:24.005Z,4.60
2019-02-04T12:32:23.995Z,6.20
2019-02-04T12:33:23.983Z,4.50
2019-02-04T12:34:23.971Z,4.40
2019-02-04T12:35:23.964Z,4.90
2019-02-04T12:36:23.950Z,5.00
2019-02-04T12:37:23.946Z,4.80
2019-02-04T12:38:23.929Z,3.70
2019-02-04T12:39:23.918Z,4.80
2019-02-04T12:40:23.906Z,5.10
2019-02-04T12:41:23.899Z,4.80
2019-02-04T12:42:23.977Z,5.30
2019-02-04T12:43:23.873Z,3.90
2019-02-04T12:44:23.863Z,4.60
2019-02-04T12:45:23.851Z,6.40
2019-02-04T12:46:23.846Z,4.60
2019-02-04T12:47:23.830Z,8.70
2019-02-04T12:48:23.820Z,4.40
2019-02-04T12:49:23.810Z,6.00
2019-02-04T12:50:23.865Z,6.30
2019-02-04T12:51:33.234Z,5.90
2019-02-04T12:52:24.774Z,6.20
2019-02-04T12:53:23.765Z,5.80
2019-02-04T12:54:26.599Z,4.40
2019-02-04T12:55:23.744Z,4.40
2019-02-04T12:56:23.735Z,5.30
2019-02-04T12:57:23.727Z,7.40